Time;durP1;ratioP1;P1;durP2;ratioP2;P2;SDS_P1;SDS_P2;PMS_P1;PMS_P2;Temp;Humidity;BMP_temperature;BMP_pressure;BME280_temperature;BME280_humidity;BME280_pressure;Samples;Min_cycle;Max_cycle;Signal;HPM_P1;HPM_P2
2023/03/01 00:02:00;;;;;;;17.40;7.88;;;3.40;72.60;;;;;;4973707;28;92442;-70
2023/03/01 00:04:27;;;;;;;18.63;8.02;;;3.40;73.00;;;;;;4979649;28;93993;-69
2023/03/01 00:06:53;;;;;;;17.15;7.05;;;3.40;72.80;;;;;;4977633;28;94404;-70
2023/03/01 00:09:19;;;;;;;16.30;7.40;;;3.40;73.10;;;;;;4977898;28;92079;-70
2023/03/01 00:11:45;;;;;;;20.05;7.75;;;3.30;73.00;;;;;;4978290;28;92634;-69
2023/03/01 00:14:11;;;;;;;16.90;7.72;;;3.30;72.90;;;;;;4977122;28;93228;-70
2023/03/01 00:16:39;;;;;;;16.38;7.82;;;3.30;72.80;;;;;;4980310;28;93026;-69
2023/03/01 00:19:06;;;;;;;16.25;7.70;;;3.30;73.80;;;;;;4978326;28;92601;-71
2023/03/01 00:21:31;;;;;;;15.35;7.45;;;3.30;73.40;;;;;;4977904;28;91432;-68
2023/03/01 00:23:58;;;;;;;17.90;7.63;;;3.30;72.80;;;;;;4977364;28;93326;-68
2023/03/01 00:26:25;;;;;;;18.35;8.50;;;3.30;72.90;;;;;;4976035;28;92305;-71
2023/03/01 00:28:51;;;;;;;16.90;7.75;;;3.40;73.30;;;;;;4977576;28;93190;-69
2023/03/01 00:31:20;;;;;;;16.35;7.03;;;3.40;72.90;;;;;;4977589;28;92626;-70
2023/03/01 00:33:46;;;;;;;15.20;6.57;;;3.30;72.60;;;;;;4979885;28;97088;-72
2023/03/01 00:36:14;;;;;;;14.93;6.90;;;3.30;72.50;;;;;;4982829;28;92974;-71
2023/03/01 00:38:42;;;;;;;14.95;6.90;;;3.20;72.60;;;;;;4977156;28;92075;-73
2023/03/01 00:41:10;;;;;;;13.88;6.68;;;3.30;73.00;;;;;;4978397;28;91992;-70
2023/03/01 00:43:38;;;;;;;16.20;6.50;;;3.20;72.80;;;;;;4977136;28;94221;-72
2023/03/01 00:46:07;;;;;;;14.77;6.40;;;3.20;73.10;;;;;;4973741;28;93051;-70
2023/03/01 00:48:34;;;;;;;14.95;7.00;;;3.20;73.10;;;;;;4972070;28;92410;-71
2023/03/01 00:51:07;;;;;;;15.13;6.88;;;3.20;73.80;;;;;;4976944;28;93685;-70
2023/03/01 00:53:33;;;;;;;16.25;6.88;;;3.10;74.00;;;;;;4975889;28;93604;-72
2023/03/01 00:55:59;;;;;;;16.60;6.72;;;3.10;73.30;;;;;;4978385;28;92911;-70
2023/03/01 00:58:26;;;;;;;16.75;6.88;;;3.10;73.70;;;;;;4977532;28;92561;-70
2023/03/01 01:00:52;;;;;;;16.80;6.63;;;3.10;74.10;;;;;;4978854;28;92469;-71
2023/03/01 01:03:18;;;;;;;14.60;6.72;;;3.10;73.60;;;;;;4972055;28;93544;-70
2023/03/01 01:05:44;;;;;;;13.73;6.60;;;3.00;73.90;;;;;;4978394;28;93773;-71
2023/03/01 01:08:10;;;;;;;14.50;6.43;;;3.00;73.60;;;;;;4978110;28;92062;-70
2023/03/01 01:10:35;;;;;;;14.18;6.60;;;3.00;73.70;;;;;;4977550;28;91955;-72
2023/03/01 01:13:01;;;;;;;16.25;6.85;;;3.00;73.90;;;;;;4973058;28;93367;-70
2023/03/01 01:15:27;;;;;;;16.35;7.05;;;3.00;73.60;;;;;;4981388;28;92802;-70
2023/03/01 01:17:53;;;;;;;14.60;6.55;;;3.00;73.50;;;;;;4977255;28;93426;-71
2023/03/01 01:20:19;;;;;;;13.57;6.38;;;3.00;73.70;;;;;;4972528;28;94875;-72
2023/03/01 01:22:44;;;;;;;13.32;6.25;;;3.00;73.50;;;;;;4979056;28;93998;-70
2023/03/01 01:25:10;;;;;;;15.43;6.57;;;3.10;73.50;;;;;;4977710;28;92366;-68
2023/03/01 01:27:36;;;;;;;15.68;6.75;;;3.00;73.50;;;;;;4976813;28;92247;-72
2023/03/01 01:30:03;;;;;;;14.90;6.78;;;3.00;73.50;;;;;;4977507;28;92372;-69
2023/03/01 01:32:29;;;;;;;13.60;6.43;;;3.00;73.60;;;;;;4975646;28;95049;-69
2023/03/01 01:34:55;;;;;;;14.23;6.10;;;3.00;73.50;;;;;;4983099;28;92960;-66
2023/03/01 01:37:21;;;;;;;15.27;6.65;;;3.00;73.40;;;;;;4984689;28;92576;-69
2023/03/01 01:39:46;;;;;;;15.07;6.65;;;3.00;73.40;;;;;;4980259;28;92404;-72
2023/03/01 01:42:17;;;;;;;16.10;6.55;;;3.00;73.70;;;;;;4985383;28;94029;-70
2023/03/01 01:44:46;;;;;;;14.18;6.70;;;3.00;73.40;;;;;;4979910;28;93886;-71
2023/03/01 01:47:18;;;;;;;14.80;6.80;;;3.00;73.50;;;;;;4986174;28;92400;-74
2023/03/01 01:49:54;;;;;;;15.98;7.00;;;3.00;73.40;;;;;;4976718;28;93681;-75
2023/03/01 01:52:31;;;;;;;14.60;6.85;;;3.10;73.20;;;;;;4978908;28;93171;-70
2023/03/01 01:55:02;;;;;;;14.02;6.88;;;3.00;73.20;;;;;;4987655;28;92961;-69
2023/03/01 01:57:52;;;;;;;13.75;6.30;;;3.00;73.40;;;;;;4979645;28;92001;-73
2023/03/01 02:00:21;;;;;;;15.40;7.20;;;3.10;73.40;;;;;;4970169;28;91773;-71
2023/03/01 02:02:51;;;;;;;15.25;6.85;;;3.10;73.30;;;;;;4978594;28;92616;-72
2023/03/01 02:05:47;;;;;;;15.15;6.53;;;3.00;73.20;;;;;;4984302;28;92839;-75
2023/03/01 02:08:15;;;;;;;15.80;6.72;;;3.00;73.30;;;;;;4969035;28;94432;-71
2023/03/01 02:10:41;;;;;;;14.13;6.45;;;3.00;73.40;;;;;;4978925;28;92150;-71
2023/03/01 02:13:07;;;;;;;13.10;6.22;;;3.00;73.60;;;;;;4977279;28;93165;-71
2023/03/01 02:15:35;;;;;;;14.02;6.20;;;3.00;73.50;;;;;;4985866;28;93013;-71
2023/03/01 02:18:03;;;;;;;13.93;6.55;;;3.00;73.60;;;;;;4980814;28;93378;-72
2023/03/01 02:20:48;;;;;;;13.63;6.22;;;3.00;73.40;;;;;;4979128;28;92536;-69
2023/03/01 02:23:14;;;;;;;13.98;6.53;;;3.00;73.10;;;;;;4977702;28;93147;-69
2023/03/01 02:26:20;;;;;;;15.63;6.55;;;3.00;73.00;;;;;;4982430;28;92497;-70
2023/03/01 02:28:47;;;;;;;13.48;6.38;;;2.90;73.30;;;;;;4963866;28;93029;-70
2023/03/01 02:34:04;;;;;;;13.75;6.47;;;2.80;73.80;;;;;;4969183;28;93531;-69
2023/03/01 02:36:38;;;;;;;15.63;6.78;;;2.80;74.30;;;;;;4978791;28;93770;-71
2023/03/01 02:39:06;;;;;;;14.13;6.60;;;2.90;74.20;;;;;;4978635;28;92560;-69
2023/03/01 02:41:36;;;;;;;16.02;6.80;;;2.90;73.60;;;;;;4979368;28;92683;-73
2023/03/01 02:44:03;;;;;;;13.90;6.53;;;2.90;74.20;;;;;;4985519;28;93613;-70
2023/03/01 02:46:29;;;;;;;14.98;6.25;;;2.90;73.80;;;;;;4983487;28;93167;-71
2023/03/01 02:48:58;;;;;;;14.45;6.53;;;2.90;73.50;;;;;;4977922;28;93843;-72
2023/03/01 02:51:33;;;;;;;13.77;6.50;;;2.80;73.80;;;;;;4979312;28;91293;-70
2023/03/01 02:54:07;;;;;;;13.40;6.50;;;2.80;73.90;;;;;;4974324;28;93247;-69
2023/03/01 02:56:33;;;;;;;13.60;6.40;;;2.70;74.10;;;;;;4978140;28;92905;-71
2023/03/01 02:59:00;;;;;;;13.63;6.55;;;2.70;73.80;;;;;;4986222;28;93367;-70
2023/03/01 03:01:36;;;;;;;15.85;6.55;;;2.70;74.30;;;;;;4988453;28;92468;-70
2023/03/01 03:04:03;;;;;;;15.02;6.55;;;2.70;74.30;;;;;;4978137;28;93244;-71
2023/03/01 03:06:29;;;;;;;15.30;6.75;;;2.70;74.10;;;;;;4969412;28;93389;-70
2023/03/01 03:08:55;;;;;;;15.90;6.68;;;2.80;74.00;;;;;;4974707;28;93435;-72
2023/03/01 03:11:20;;;;;;;15.95;6.63;;;2.70;74.20;;;;;;4986118;28;92120;-71
2023/03/01 03:13:47;;;;;;;15.85;6.50;;;2.70;74.00;;;;;;4986559;28;94397;-71
2023/03/01 03:16:14;;;;;;;17.20;7.28;;;2.60;74.50;;;;;;4980826;28;92467;-70
2023/03/01 03:18:40;;;;;;;17.08;7.03;;;2.70;74.30;;;;;;4978347;28;92909;-71
2023/03/01 03:21:10;;;;;;;15.73;7.22;;;2.70;74.30;;;;;;4978598;28;92530;-71
2023/03/01 03:23:37;;;;;;;16.42;7.10;;;2.70;74.10;;;;;;4978123;28;93648;-70
2023/03/01 03:26:04;;;;;;;15.70;6.57;;;2.70;74.10;;;;;;4973859;28;93844;-70
2023/03/01 03:28:30;;;;;;;15.93;6.68;;;2.70;74.30;;;;;;4978615;28;92205;-68
2023/03/01 03:30:56;;;;;;;15.50;7.07;;;2.70;74.20;;;;;;4979018;28;92374;-70
2023/03/01 03:33:22;;;;;;;16.27;7.00;;;2.70;74.00;;;;;;4976654;28;93089;-71
2023/03/01 03:35:49;;;;;;;19.00;6.93;;;2.70;73.70;;;;;;4978384;28;92390;-72
2023/03/01 03:38:18;;;;;;;14.75;5.93;;;2.80;73.90;;;;;;4978721;28;92162;-71
2023/03/01 03:41:11;;;;;;;14.82;6.57;;;2.80;73.80;;;;;;4968385;28;92804;-70
2023/03/01 03:43:38;;;;;;;14.05;6.10;;;2.70;73.70;;;;;;4975421;28;93800;-70
2023/03/01 03:46:07;;;;;;;14.52;6.65;;;2.70;73.70;;;;;;4989887;28;93000;-70
2023/03/01 03:48:44;;;;;;;15.48;6.93;;;2.70;73.90;;;;;;4982458;28;94942;-70
2023/03/01 03:51:15;;;;;;;13.85;6.28;;;2.70;74.10;;;;;;4980551;28;92418;-69
2023/03/01 03:53:41;;;;;;;15.10;6.60;;;2.80;74.10;;;;;;4986525;28;92498;-69
2023/03/01 03:56:07;;;;;;;15.98;7.15;;;2.90;73.80;;;;;;4973480;28;92360;-70
2023/03/01 03:58:33;;;;;;;16.17;7.20;;;2.90;73.50;;;;;;4976935;28;93232;-72
2023/03/01 04:01:00;;;;;;;14.40;6.60;;;2.80;73.50;;;;;;4978563;28;93058;-71
2023/03/01 04:03:27;;;;;;;18.10;7.20;;;2.80;73.40;;;;;;4978113;28;92691;-72
2023/03/01 04:05:53;;;;;;;15.85;7.13;;;2.70;73.70;;;;;;4984387;28;93343;-71
2023/03/01 04:08:21;;;;;;;15.23;6.75;;;2.70;73.70;;;;;;4979636;28;92622;-71
2023/03/01 04:10:49;;;;;;;18.42;7.50;;;2.70;74.10;;;;;;4977628;28;92095;-74
2023/03/01 04:13:18;;;;;;;18.25;7.32;;;2.70;73.80;;;;;;4984440;28;94282;-73
2023/03/01 04:15:44;;;;;;;15.05;7.07;;;2.70;73.80;;;;;;4978844;28;93765;-71
2023/03/01 04:18:13;;;;;;;16.10;7.00;;;2.70;73.90;;;;;;4978377;28;92223;-71
2023/03/01 04:20:39;;;;;;;17.02;7.00;;;2.70;74.10;;;;;;4979406;28;92885;-70
2023/03/01 04:23:13;;;;;;;15.60;6.45;;;2.70;74.20;;;;;;4974869;28;94295;-70
2023/03/01 04:25:45;;;;;;;15.35;6.53;;;2.70;74.50;;;;;;4979128;28;92384;-69
2023/03/01 04:28:11;;;;;;;16.42;6.93;;;2.70;74.60;;;;;;4963168;28;93499;-69
2023/03/01 04:30:39;;;;;;;15.18;7.15;;;2.70;74.20;;;;;;4970404;28;93503;-71
2023/03/01 04:33:06;;;;;;;16.40;7.10;;;2.80;73.90;;;;;;4968088;28;93534;-70
2023/03/01 04:35:32;;;;;;;16.63;7.28;;;2.70;73.90;;;;;;4974486;28;92576;-70
2023/03/01 04:37:58;;;;;;;17.55;7.40;;;2.70;74.20;;;;;;4976377;28;93567;-70
2023/03/01 04:40:24;;;;;;;14.43;6.65;;;2.80;74.00;;;;;;4977528;28;92533;-70
2023/03/01 04:42:50;;;;;;;16.02;7.22;;;2.80;74.10;;;;;;4978865;28;92737;-70
2023/03/01 04:45:16;;;;;;;15.70;6.82;;;2.70;73.80;;;;;;4965796;28;92831;-71
2023/03/01 04:47:44;;;;;;;15.35;6.85;;;2.80;74.00;;;;;;4968559;28;92220;-70
2023/03/01 04:50:12;;;;;;;15.75;6.40;;;2.80;74.00;;;;;;4976868;28;93461;-70
2023/03/01 04:52:38;;;;;;;14.85;6.43;;;2.80;73.60;;;;;;4976915;28;92670;-71
2023/03/01 04:55:04;;;;;;;17.00;6.20;;;2.80;73.70;;;;;;4984296;28;91933;-70
2023/03/01 04:57:30;;;;;;;14.25;6.40;;;2.70;73.30;;;;;;4984529;28;92028;-70
2023/03/01 04:59:56;;;;;;;13.93;5.93;;;2.70;73.80;;;;;;4979046;28;92233;-70
2023/03/01 05:02:21;;;;;;;13.05;5.82;;;2.70;73.10;;;;;;4979154;28;94203;-71
2023/03/01 05:04:47;;;;;;;14.20;5.75;;;2.60;73.10;;;;;;4982897;28;93446;-70
2023/03/01 05:07:19;;;;;;;14.75;5.97;;;2.60;73.50;;;;;;4972350;28;92440;-70
2023/03/01 05:09:45;;;;;;;13.30;5.97;;;2.60;73.70;;;;;;4984861;28;92750;-72
2023/03/01 05:12:12;;;;;;;16.30;6.20;;;2.60;73.70;;;;;;4981084;28;93782;-69
2023/03/01 05:14:38;;;;;;;16.33;6.10;;;2.60;73.40;;;;;;4978703;28;93056;-69
2023/03/01 05:17:04;;;;;;;13.25;5.72;;;2.70;73.40;;;;;;4980627;28;92160;-71
2023/03/01 05:19:31;;;;;;;13.35;6.20;;;2.60;73.40;;;;;;4980812;28;91866;-70
2023/03/01 05:22:06;;;;;;;17.63;6.20;;;2.70;73.20;;;;;;4980353;28;92823;-73
2023/03/01 05:24:34;;;;;;;14.75;6.45;;;2.60;73.60;;;;;;4983829;28;92703;-69
2023/03/01 05:27:00;;;;;;;14.15;6.55;;;2.60;73.60;;;;;;4976763;28;93066;-71
2023/03/01 05:29:28;;;;;;;14.27;6.28;;;2.60;73.40;;;;;;4979845;28;92259;-72
2023/03/01 05:31:57;;;;;;;14.52;6.57;;;2.60;73.40;;;;;;4977094;28;93562;-71
2023/03/01 05:34:32;;;;;;;16.00;6.80;;;2.70;73.70;;;;;;4981098;28;94476;-70
2023/03/01 05:36:58;;;;;;;14.98;6.30;;;2.60;73.50;;;;;;4980401;28;92330;-70
2023/03/01 05:39:26;;;;;;;15.75;5.72;;;2.70;73.30;;;;;;4984521;28;92077;-70
2023/03/01 05:41:53;;;;;;;14.15;6.25;;;2.70;73.10;;;;;;4988508;28;93138;-70
2023/03/01 05:44:19;;;;;;;13.00;5.53;;;2.70;73.00;;;;;;4982412;28;92400;-70
2023/03/01 05:46:44;;;;;;;12.88;5.50;;;2.70;72.70;;;;;;4981150;28;93031;-71
2023/03/01 05:49:13;;;;;;;15.02;5.55;;;2.70;72.80;;;;;;4985560;28;92130;-71
2023/03/01 05:51:39;;;;;;;14.65;5.95;;;2.70;72.60;;;;;;4973475;28;95132;-72
2023/03/01 05:54:05;;;;;;;13.02;5.65;;;2.60;72.60;;;;;;4985322;28;93336;-70
2023/03/01 05:56:34;;;;;;;12.55;5.55;;;2.70;72.70;;;;;;4982283;28;92466;-70
2023/03/01 05:59:00;;;;;;;14.25;6.07;;;2.70;72.00;;;;;;4988403;28;92690;-71
2023/03/01 06:01:25;;;;;;;13.88;5.85;;;2.70;72.30;;;;;;4976965;28;94288;-70
2023/03/01 06:03:51;;;;;;;13.98;5.75;;;2.70;72.00;;;;;;4974203;28;94069;-70
2023/03/01 06:06:17;;;;;;;13.70;6.10;;;2.70;72.10;;;;;;4969054;28;92357;-73
2023/03/01 06:08:42;;;;;;;16.40;6.13;;;2.70;71.90;;;;;;4964856;28;93003;-72
2023/03/01 06:11:08;;;;;;;14.10;6.05;;;2.80;72.10;;;;;;4963370;28;92857;-70
2023/03/01 06:13:34;;;;;;;11.85;5.38;;;2.80;72.50;;;;;;4975204;28;92302;-71
2023/03/01 06:16:00;;;;;;;13.95;5.90;;;2.80;73.10;;;;;;4977812;28;94169;-71
2023/03/01 06:18:25;;;;;;;14.18;6.00;;;2.80;72.00;;;;;;4974250;28;92837;-71
2023/03/01 06:20:55;;;;;;;14.18;5.25;;;2.80;71.90;;;;;;4977725;28;93242;-70
2023/03/01 06:23:21;;;;;;;14.40;5.85;;;2.80;72.50;;;;;;4967832;28;92716;-70
2023/03/01 06:25:47;;;;;;;13.82;5.90;;;2.70;72.50;;;;;;4971960;28;92691;-71
2023/03/01 06:28:13;;;;;;;13.98;5.57;;;2.80;72.10;;;;;;4975490;28;92352;-70
2023/03/01 06:30:38;;;;;;;14.32;6.25;;;2.90;72.20;;;;;;4977244;28;93256;-69
2023/03/01 06:33:04;;;;;;;13.80;6.10;;;3.00;71.80;;;;;;4980310;28;93115;-70
2023/03/01 06:35:30;;;;;;;13.85;6.50;;;3.00;71.50;;;;;;4978765;28;93223;-74
2023/03/01 06:37:58;;;;;;;14.90;5.88;;;2.90;71.80;;;;;;4987965;28;92618;-71
2023/03/01 06:40:24;;;;;;;21.52;8.50;;;3.00;71.20;;;;;;4964790;28;94043;-71
2023/03/01 06:42:50;;;;;;;17.08;6.80;;;2.90;71.30;;;;;;4976092;28;95107;-71
2023/03/01 06:45:18;;;;;;;15.38;6.13;;;3.00;71.30;;;;;;4974463;28;92755;-71
2023/03/01 06:47:43;;;;;;;13.45;6.10;;;2.90;71.50;;;;;;4973189;28;92592;-70
2023/03/01 06:50:10;;;;;;;14.85;5.82;;;2.90;71.70;;;;;;4975613;28;93077;-70
2023/03/01 06:52:36;;;;;;;17.30;6.70;;;3.00;72.20;;;;;;4978237;28;92911;-70
2023/03/01 06:55:02;;;;;;;12.50;6.03;;;3.00;72.20;;;;;;4976784;28;94152;-71
2023/03/01 06:57:28;;;;;;;15.50;5.97;;;3.10;71.90;;;;;;4966406;28;91860;-70
2023/03/01 06:59:54;;;;;;;15.05;5.70;;;3.10;72.00;;;;;;4978038;28;95403;-70
2023/03/01 07:02:20;;;;;;;17.27;5.80;;;3.20;71.60;;;;;;4969419;28;92712;-71
2023/03/01 07:04:45;;;;;;;18.17;6.32;;;3.20;71.00;;;;;;4974546;28;93869;-71
2023/03/01 07:07:11;;;;;;;20.08;5.70;;;3.20;70.60;;;;;;4974869;28;92410;-71
2023/03/01 07:09:37;;;;;;;16.48;6.35;;;3.30;71.10;;;;;;4978116;28;93173;-73
2023/03/01 07:12:03;;;;;;;16.63;6.45;;;3.20;70.70;;;;;;4967779;28;92594;-72
2023/03/01 07:14:28;;;;;;;14.57;6.45;;;3.30;71.00;;;;;;4981696;28;92497;-71
2023/03/01 07:16:55;;;;;;;13.93;6.00;;;3.30;70.60;;;;;;4977937;28;92115;-71
2023/03/01 07:19:21;;;;;;;13.60;5.95;;;3.30;70.80;;;;;;4977199;28;93695;-72
2023/03/01 07:21:47;;;;;;;12.43;5.57;;;3.30;70.60;;;;;;4978226;28;93289;-71
2023/03/01 07:24:13;;;;;;;14.38;6.10;;;3.30;71.10;;;;;;4979994;28;92776;-71
2023/03/01 07:26:38;;;;;;;13.45;5.72;;;3.40;70.50;;;;;;4986809;28;92386;-70
2023/03/01 07:29:06;;;;;;;13.77;6.15;;;3.40;70.80;;;;;;4970061;28;93550;-70
2023/03/01 07:31:32;;;;;;;16.30;5.90;;;3.50;70.20;;;;;;4975619;28;92883;-72
2023/03/01 07:33:58;;;;;;;14.50;5.50;;;3.50;70.40;;;;;;4976823;28;92173;-72
2023/03/01 07:36:24;;;;;;;21.15;5.60;;;3.50;70.40;;;;;;4977379;28;92680;-70
2023/03/01 07:38:50;;;;;;;15.52;5.82;;;3.50;69.90;;;;;;4983098;28;93133;-72
2023/03/01 07:41:16;;;;;;;17.05;5.57;;;3.50;69.90;;;;;;4977018;28;92210;-70
2023/03/01 07:43:41;;;;;;;18.92;5.57;;;3.50;69.70;;;;;;4984396;28;92951;-74
2023/03/01 07:46:07;;;;;;;14.32;5.63;;;3.40;69.70;;;;;;4976656;28;91812;-74
2023/03/01 07:48:33;;;;;;;15.88;5.90;;;3.50;70.10;;;;;;4976810;28;92627;-70
2023/03/01 07:51:03;;;;;;;14.43;5.75;;;3.60;69.30;;;;;;4983126;28;92825;-71
2023/03/01 07:53:31;;;;;;;13.02;5.72;;;3.60;69.40;;;;;;4974862;28;93148;-69
2023/03/01 07:56:11;;;;;;;13.98;6.00;;;3.60;69.40;;;;;;4977288;28;93665;-72
2023/03/01 07:58:38;;;;;;;12.25;5.15;;;3.60;69.30;;;;;;4976051;28;92446;-71
2023/03/01 08:01:10;;;;;;;10.70;5.07;;;3.60;69.80;;;;;;4980523;28;92608;-70
2023/03/01 08:03:36;;;;;;;13.85;6.32;;;3.60;69.10;;;;;;4977835;28;92315;-70
2023/03/01 08:06:04;;;;;;;15.43;5.78;;;3.70;70.00;;;;;;4979726;28;92201;-70
2023/03/01 08:08:30;;;;;;;13.55;6.03;;;3.70;69.40;;;;;;4976128;28;94622;-70
2023/03/01 08:10:57;;;;;;;15.15;6.07;;;3.70;69.00;;;;;;4976738;28;93181;-71
2023/03/01 08:13:23;;;;;;;13.50;5.90;;;3.80;68.90;;;;;;4978007;28;92035;-71
2023/03/01 08:15:49;;;;;;;13.85;5.97;;;3.90;68.80;;;;;;4973381;28;92166;-73
2023/03/01 08:18:19;;;;;;;15.70;6.00;;;3.90;68.60;;;;;;4976827;28;94055;-72
2023/03/01 08:20:45;;;;;;;16.63;5.75;;;4.00;68.90;;;;;;4983341;28;94027;-71
2023/03/01 08:23:11;;;;;;;12.55;6.07;;;4.00;68.80;;;;;;4978507;28;92210;-70
2023/03/01 08:25:38;;;;;;;14.43;5.88;;;4.00;68.60;;;;;;4967504;28;92678;-71
2023/03/01 08:28:04;;;;;;;19.85;7.90;;;4.20;68.40;;;;;;4979381;28;92384;-70
2023/03/01 08:30:29;;;;;;;14.38;6.32;;;4.10;68.80;;;;;;4974079;28;92444;-69
2023/03/01 08:32:55;;;;;;;14.45;6.03;;;4.20;68.30;;;;;;4983325;28;92594;-70
2023/03/01 08:35:21;;;;;;;15.18;6.38;;;4.30;67.40;;;;;;4984721;28;91866;-68
2023/03/01 08:37:47;;;;;;;15.15;6.70;;;4.30;67.70;;;;;;4973359;28;92682;-69
2023/03/01 08:40:13;;;;;;;15.98;6.72;;;4.40;67.30;;;;;;4976098;28;92888;-72
2023/03/01 08:42:40;;;;;;;14.68;6.38;;;4.40;67.40;;;;;;4965403;28;95192;-74
2023/03/01 08:45:07;;;;;;;18.00;6.30;;;4.50;66.80;;;;;;4974952;28;93619;-71
2023/03/01 08:47:33;;;;;;;12.85;6.15;;;4.50;66.60;;;;;;4961502;28;93643;-75
2023/03/01 08:49:59;;;;;;;19.50;6.85;;;4.60;66.80;;;;;;4964520;28;94630;-73
2023/03/01 08:52:26;;;;;;;12.15;5.65;;;4.80;66.10;;;;;;4965081;28;92587;-72
2023/03/01 08:54:52;;;;;;;13.85;6.10;;;4.90;65.90;;;;;;4974885;28;93123;-69
2023/03/01 08:57:18;;;;;;;13.43;5.95;;;5.00;65.00;;;;;;4964757;28;93352;-70
2023/03/01 08:59:44;;;;;;;14.13;5.88;;;5.00;65.00;;;;;;4968431;28;93314;-70
2023/03/01 09:02:15;;;;;;;17.13;6.50;;;5.20;65.20;;;;;;4968409;28;93177;-70
2023/03/01 09:04:41;;;;;;;48.30;7.53;;;5.30;65.10;;;;;;4973059;28;93314;-71
2023/03/01 09:07:07;;;;;;;20.17;6.10;;;5.40;64.40;;;;;;4967806;28;94301;-75
2023/03/01 09:09:33;;;;;;;13.27;5.55;;;5.50;64.50;;;;;;4977340;28;93801;-71
2023/03/01 09:11:59;;;;;;;12.85;6.32;;;5.60;63.70;;;;;;4978163;28;93700;-70
2023/03/01 09:14:24;;;;;;;14.93;6.25;;;5.70;63.20;;;;;;4972465;28;93409;-75
2023/03/01 09:16:50;;;;;;;15.00;6.30;;;5.90;62.60;;;;;;4973232;28;93144;-71
2023/03/01 09:19:16;;;;;;;11.20;5.45;;;6.10;61.60;;;;;;4966925;28;94506;-72
2023/03/01 09:21:51;;;;;;;13.88;5.60;;;6.20;61.80;;;;;;4968845;28;93596;-72
2023/03/01 09:24:19;;;;;;;14.13;6.03;;;6.30;61.30;;;;;;4973082;28;92595;-73
2023/03/01 09:26:46;;;;;;;13.07;6.07;;;6.30;61.90;;;;;;4980785;28;93942;-71
2023/03/01 09:29:12;;;;;;;13.80;6.32;;;6.30;61.00;;;;;;4974289;28;92363;-71
2023/03/01 09:31:38;;;;;;;12.65;5.97;;;6.30;61.50;;;;;;4974712;28;94375;-71
2023/03/01 09:34:04;;;;;;;12.77;5.93;;;6.30;60.90;;;;;;4969907;28;93195;-69
2023/03/01 09:36:30;;;;;;;14.90;6.88;;;6.20;61.00;;;;;;4979297;28;93191;-71
2023/03/01 09:38:58;;;;;;;15.27;6.35;;;6.20;61.20;;;;;;4978135;28;94486;-73
2023/03/01 09:41:44;;;;;;;14.73;6.10;;;6.30;61.80;;;;;;4975697;28;92157;-70
2023/03/01 09:44:27;;;;;;;18.70;6.15;;;6.20;61.80;;;;;;4977870;28;92891;-73
2023/03/01 09:46:53;;;;;;;14.38;6.00;;;6.00;61.80;;;;;;4971834;28;93973;-69
2023/03/01 09:49:23;;;;;;;13.50;5.65;;;6.10;61.60;;;;;;4968880;28;93100;-71
2023/03/01 09:52:01;;;;;;;;;;;6.10;61.10;;;;;;4983995;28;92004;-70
2023/03/01 09:54:27;;;;;;;13.45;6.18;;;6.20;63.40;;;;;;4977580;28;92814;-72
2023/03/01 09:57:19;;;;;;;14.85;6.47;;;6.40;61.50;;;;;;4968840;28;93683;-69
2023/03/01 09:59:51;;;;;;;13.57;6.10;;;6.60;61.20;;;;;;4971027;28;93842;-72
2023/03/01 10:02:41;;;;;;;11.93;5.95;;;6.80;60.20;;;;;;4971075;28;94457;-72
2023/03/01 10:05:21;;;;;;;13.00;6.30;;;7.00;60.60;;;;;;4969239;28;92656;-74
2023/03/01 10:07:59;;;;;;;13.20;5.97;;;7.10;58.90;;;;;;4971268;28;93285;-72
2023/03/01 10:10:31;;;;;;;11.57;5.50;;;7.30;58.70;;;;;;4975400;28;92724;-71
2023/03/01 10:12:59;;;;;;;22.85;6.90;;;7.20;58.50;;;;;;4971546;28;92789;-68
2023/03/01 10:15:39;;;;;;;12.15;6.28;;;7.30;59.30;;;;;;4967269;28;92069;-70
2023/03/01 10:18:19;;;;;;;11.38;5.88;;;7.40;60.40;;;;;;4970984;28;93801;-74
2023/03/01 10:20:59;;;;;;;72.88;8.45;;;7.90;59.20;;;;;;4968331;28;93193;-70
2023/03/01 10:23:27;;;;;;;13.52;6.38;;;8.00;57.40;;;;;;4968791;28;93594;-72
2023/03/01 10:26:17;;;;;;;21.15;6.38;;;7.70;57.30;;;;;;4976078;28;93238;-73
2023/03/01 10:28:49;;;;;;;18.02;6.75;;;7.30;57.60;;;;;;4977306;28;92696;-75
2023/03/01 10:31:22;;;;;;;16.25;6.03;;;7.30;58.20;;;;;;4967656;28;92996;-74
2023/03/01 10:33:51;;;;;;;10.98;5.25;;;7.50;59.60;;;;;;4959204;28;93699;-74
2023/03/01 10:36:17;;;;;;;36.15;7.32;;;7.70;57.60;;;;;;4969614;28;92710;-74
2023/03/01 10:38:57;;;;;;;12.18;6.25;;;7.70;57.50;;;;;;4975676;28;93246;-71
2023/03/01 10:41:25;;;;;;;26.02;6.82;;;7.90;57.20;;;;;;4972677;28;92972;-75
2023/03/01 10:43:54;;;;;;;10.43;5.57;;;8.20;56.50;;;;;;4972060;28;92985;-73
2023/03/01 10:46:34;;;;;;;12.57;6.15;;;8.40;56.70;;;;;;4972063;28;92371;-70
2023/03/01 10:49:22;;;;;;;13.77;6.93;;;8.60;55.60;;;;;;4970277;28;94023;-71
2023/03/01 10:51:50;;;;;;;14.02;6.38;;;9.10;55.30;;;;;;4960165;28;94554;-73
2023/03/01 10:54:34;;;;;;;14.38;6.68;;;9.30;55.00;;;;;;4974860;28;93006;-71
2023/03/01 10:57:02;;;;;;;15.00;6.68;;;9.30;54.00;;;;;;4970257;28;93830;-70
2023/03/01 10:59:32;;;;;;;15.68;6.68;;;9.10;55.10;;;;;;4961842;28;92800;-74
2023/03/01 11:02:28;;;;;;;14.05;6.82;;;9.10;54.90;;;;;;4965000;28;94163;-73
2023/03/01 11:04:58;;;;;;;;;;;8.90;55.70;;;;;;4972570;28;92621;-76
2023/03/01 11:07:23;;;;;;;14.27;6.85;;;8.90;55.20;;;;;;4969872;28;94087;-74
2023/03/01 11:09:49;;;;;;;12.05;6.10;;;8.80;55.10;;;;;;4972676;28;94078;-70
2023/03/01 11:12:16;;;;;;;16.50;6.82;;;8.70;55.60;;;;;;4965665;28;93460;-72
2023/03/01 11:14:54;;;;;;;14.23;7.10;;;8.60;55.30;;;;;;4965827;28;95182;-71
2023/03/01 11:17:28;;;;;;;11.00;6.45;;;8.50;55.40;;;;;;4983157;28;92350;-76
2023/03/01 11:20:19;;;;;;;14.02;7.18;;;8.50;55.60;;;;;;4967337;28;94600;-74
2023/03/01 11:22:53;;;;;;;14.25;6.60;;;8.60;55.50;;;;;;4965653;28;94432;-74
2023/03/01 11:25:23;;;;;;;14.43;6.93;;;8.70;56.30;;;;;;4975559;28;93715;-71
2023/03/01 11:27:49;;;;;;;12.85;6.53;;;8.80;55.30;;;;;;4970032;28;94272;-71
2023/03/01 11:30:23;;;;;;;13.07;6.80;;;8.90;56.80;;;;;;4970713;28;92543;-69
2023/03/01 11:32:49;;;;;;;15.60;7.07;;;8.80;55.50;;;;;;4974525;28;92760;-69
2023/03/01 11:35:20;;;;;;;13.63;7.97;;;8.80;57.00;;;;;;4971212;28;92637;-69
2023/03/01 11:37:58;;;;;;;13.52;7.40;;;8.50;56.40;;;;;;4975096;28;94140;-71
2023/03/01 11:40:28;;;;;;;13.38;6.70;;;8.60;58.50;;;;;;4962537;28;93773;-74
2023/03/01 11:43:12;;;;;;;14.27;7.22;;;8.60;58.40;;;;;;4969203;28;94009;-71
2023/03/01 11:45:50;;;;;;;12.20;6.32;;;8.70;57.40;;;;;;4972586;28;93670;-72
2023/03/01 11:48:54;;;;;;;13.90;7.07;;;8.50;56.30;;;;;;4964832;28;93607;-72
2023/03/01 11:51:38;;;;;;;13.02;6.47;;;8.60;57.00;;;;;;4970363;28;93114;-75
2023/03/01 11:54:28;;;;;;;12.93;6.70;;;8.70;57.00;;;;;;4960147;28;92959;-74
2023/03/01 11:56:56;;;;;;;12.63;6.38;;;8.70;56.10;;;;;;4968545;28;92748;-72
2023/03/01 11:59:59;;;;;;;18.20;6.95;;;8.80;57.50;;;;;;4960632;28;93563;-72
2023/03/01 12:02:49;;;;;;;12.88;6.88;;;8.90;56.10;;;;;;4962367;28;93212;-71
2023/03/01 12:05:23;;;;;;;15.07;7.03;;;8.80;57.40;;;;;;4984347;28;94841;-71
2023/03/01 12:08:05;;;;;;;16.08;6.85;;;8.90;58.20;;;;;;4969631;28;93428;-74
2023/03/01 12:10:38;;;;;;;13.80;7.20;;;8.90;57.00;;;;;;4970803;28;92781;-72
2023/03/01 12:13:07;;;;;;;14.48;6.72;;;8.90;56.50;;;;;;4965368;28;93388;-71
2023/03/01 12:15:51;;;;;;;16.08;7.55;;;9.00;58.10;;;;;;4976088;28;92142;-72
2023/03/01 12:18:23;;;;;;;13.38;6.88;;;8.90;58.50;;;;;;4948589;28;94622;-74
2023/03/01 12:21:00;;;;;;;13.68;6.93;;;8.90;59.60;;;;;;4970599;28;93960;-69
2023/03/01 12:23:31;;;;;;;15.25;7.75;;;9.00;57.80;;;;;;4968592;28;93941;-75
2023/03/01 12:25:57;;;;;;;14.80;7.43;;;9.20;57.80;;;;;;4970610;28;93047;-71
2023/03/01 12:28:51;;;;;;;13.18;7.07;;;9.30;56.50;;;;;;4973740;28;93146;-73
2023/03/01 12:31:45;;;;;;;15.50;7.32;;;9.30;57.20;;;;;;4968176;28;92564;-73
2023/03/01 12:34:49;;;;;;;13.10;6.97;;;9.40;57.60;;;;;;4964751;28;94988;-72
2023/03/01 12:38:15;;;;;;;14.07;7.50;;;9.40;57.50;;;;;;4944046;28;94473;-72
2023/03/01 12:41:18;;;;;;;14.02;7.50;;;9.40;57.30;;;;;;4922832;28;93271;-74
2023/03/01 12:44:14;;;;;;;13.70;7.30;;;9.50;58.40;;;;;;4899307;28;94326;-72
2023/03/01 12:46:52;;;;;;;15.60;7.38;;;9.40;57.40;;;;;;4962519;28;93593;-71
2023/03/01 12:49:26;;;;;;;16.08;7.85;;;9.60;58.30;;;;;;4973218;28;92765;-72
2023/03/01 12:52:12;;;;;;;15.35;7.80;;;9.70;58.20;;;;;;4966249;28;92527;-74
2023/03/01 12:54:38;;;;;;;14.60;7.60;;;9.70;56.70;;;;;;4964857;28;92635;-71
2023/03/01 12:57:19;;;;;;;13.93;7.00;;;9.70;57.60;;;;;;4962312;28;93190;-72
2023/03/01 12:59:50;;;;;;;15.02;7.60;;;9.60;58.30;;;;;;4970197;28;92768;-70
2023/03/01 13:02:31;;;;;;;14.52;7.68;;;9.30;59.20;;;;;;4979545;28;93117;-70
2023/03/01 13:05:07;;;;;;;13.60;7.13;;;9.30;57.70;;;;;;4978106;28;92673;-70
2023/03/01 13:07:44;;;;;;;17.27;7.22;;;9.10;58.40;;;;;;4971341;28;93222;-72